메인 페이지
METAR-TAF:

METAR-TAF

공항 :

포르드프랑스, 마르티니크

위도: 14-36N, 경도: 061-00W, 고도: 5m

현재 날씨관측

예보는 33분 전, 10:00시(UTC)에 발표되었습니다.
북동4kt
온도 22°C
습도 100%
기압 1016 hPa
시정 10km 이상

METAR: TFFF 181000Z AUTO 05004KT 9999 FEW018/// SCT048/// ///TCU 22/22 Q1016 TEMPO 4000 SHRA

시각: 06:33 (10:33 UTC)

예보

예보는 5 시간 33분 전, 05:00시(UTC)에 발표되었습니다.
예보 대상 시간: 18일 06시부터 19일 06시까지 (UTC)
7kt
시정 10km 이상
고도 2500ft 상공 구름 보통
확률 30% :
일시적
18일 06시부터 18일 15시까지 (UTC)
시정: 4000m
고도 1800ft 상공 구름 많음, 타워링 적운.
소나기
전환 중
18일 12시부터 18일 14시까지 (UTC)
15kt, 순간 최대 풍속 25kt

TAF: TFFF 180500Z 1806/1906 09007KT 9999 SCT025 PROB30 TEMPO 1806/1815 4000 SHRA BKN018TCU BECMG 1812/1814 09015G25KT

4,000개 이상의 공항 관측 자료 및 예보 (METAR 및 TAF 보고).

지도상에서 검색 가능한 기상관측소가 노란 점과 빨간 점으로 표시되어 있습니다.

기상관측소 명을 보려면 표시 위로 마우스를 이동하세요.

날씨 관측과 예보를 보려면 클릭하세요.

지도 변경 : 확대하려면 엑스 표시가 있는 녹색 버튼, 축소하려면 빼기 표시가 있는 녹색 버튼, 다음 페이지의 지도를 보려면 녹색 화살표를 클릭하세요.


METAR-TAF: